sensor_id;sensor_type;location;lat;lon;timestamp;P1;durP1;ratioP1;P2;durP2;ratioP2
32407;SDS011;18869;55.970;37.502;2022-07-09T00:00:05;5.80;;;4.90;;
32407;SDS011;18869;55.970;37.502;2022-07-09T00:02:35;5.93;;;5.30;;
32407;SDS011;18869;55.970;37.502;2022-07-09T00:05:04;6.93;;;5.80;;
32407;SDS011;18869;55.970;37.502;2022-07-09T00:07:32;9.13;;;5.53;;
32407;SDS011;18869;55.970;37.502;2022-07-09T00:09:59;8.47;;;5.70;;
32407;SDS011;18869;55.970;37.502;2022-07-09T00:12:29;6.30;;;5.07;;
32407;SDS011;18869;55.970;37.502;2022-07-09T00:14:58;5.60;;;5.10;;
32407;SDS011;18869;55.970;37.502;2022-07-09T00:17:25;6.30;;;4.87;;
32407;SDS011;18869;55.970;37.502;2022-07-09T00:19:56;5.87;;;4.87;;
32407;SDS011;18869;55.970;37.502;2022-07-09T00:22:23;5.97;;;4.83;;
32407;SDS011;18869;55.970;37.502;2022-07-09T00:24:51;5.80;;;5.23;;
32407;SDS011;18869;55.970;37.502;2022-07-09T00:27:19;4.70;;;4.30;;
32407;SDS011;18869;55.970;37.502;2022-07-09T00:29:46;5.23;;;4.73;;
32407;SDS011;18869;55.970;37.502;2022-07-09T00:32:15;5.70;;;5.03;;
32407;SDS011;18869;55.970;37.502;2022-07-09T00:34:44;5.73;;;5.13;;
32407;SDS011;18869;55.970;37.502;2022-07-09T00:37:12;5.93;;;5.07;;
32407;SDS011;18869;55.970;37.502;2022-07-09T00:39:39;5.03;;;4.50;;
32407;SDS011;18869;55.970;37.502;2022-07-09T00:42:08;5.70;;;5.20;;
32407;SDS011;18869;55.970;37.502;2022-07-09T00:44:36;5.83;;;5.27;;
32407;SDS011;18869;55.970;37.502;2022-07-09T00:47:04;5.97;;;5.13;;
32407;SDS011;18869;55.970;37.502;2022-07-09T00:49:36;7.10;;;4.57;;
32407;SDS011;18869;55.970;37.502;2022-07-09T00:52:06;6.13;;;4.60;;
32407;SDS011;18869;55.970;37.502;2022-07-09T00:54:37;6.97;;;5.13;;
32407;SDS011;18869;55.970;37.502;2022-07-09T00:57:06;7.60;;;5.20;;
32407;SDS011;18869;55.970;37.502;2022-07-09T00:59:34;6.33;;;5.73;;
32407;SDS011;18869;55.970;37.502;2022-07-09T01:02:03;7.50;;;5.17;;
32407;SDS011;18869;55.970;37.502;2022-07-09T01:04:31;6.63;;;5.03;;
32407;SDS011;18869;55.970;37.502;2022-07-09T01:07:00;6.27;;;5.27;;
32407;SDS011;18869;55.970;37.502;2022-07-09T01:09:28;6.73;;;5.10;;
32407;SDS011;18869;55.970;37.502;2022-07-09T01:11:56;7.53;;;5.83;;
32407;SDS011;18869;55.970;37.502;2022-07-09T01:14:24;9.63;;;6.03;;
32407;SDS011;18869;55.970;37.502;2022-07-09T01:16:56;7.30;;;4.77;;
32407;SDS011;18869;55.970;37.502;2022-07-09T01:19:25;7.13;;;5.17;;
32407;SDS011;18869;55.970;37.502;2022-07-09T01:21:54;5.30;;;4.63;;
32407;SDS011;18869;55.970;37.502;2022-07-09T01:24:22;6.27;;;5.47;;
32407;SDS011;18869;55.970;37.502;2022-07-09T01:26:52;7.57;;;4.90;;
32407;SDS011;18869;55.970;37.502;2022-07-09T01:29:20;7.87;;;4.97;;
32407;SDS011;18869;55.970;37.502;2022-07-09T01:31:49;7.83;;;4.90;;
32407;SDS011;18869;55.970;37.502;2022-07-09T01:34:16;5.77;;;5.20;;
32407;SDS011;18869;55.970;37.502;2022-07-09T01:36:44;5.50;;;5.00;;
32407;SDS011;18869;55.970;37.502;2022-07-09T01:39:13;6.17;;;5.20;;
32407;SDS011;18869;55.970;37.502;2022-07-09T01:41:41;7.83;;;6.07;;
32407;SDS011;18869;55.970;37.502;2022-07-09T01:44:09;7.60;;;4.93;;
32407;SDS011;18869;55.970;37.502;2022-07-09T01:46:36;5.90;;;5.10;;
32407;SDS011;18869;55.970;37.502;2022-07-09T01:49:04;6.17;;;5.20;;
32407;SDS011;18869;55.970;37.502;2022-07-09T01:51:33;7.53;;;5.23;;
32407;SDS011;18869;55.970;37.502;2022-07-09T01:54:00;8.87;;;5.73;;
32407;SDS011;18869;55.970;37.502;2022-07-09T01:56:30;6.43;;;5.37;;
32407;SDS011;18869;55.970;37.502;2022-07-09T01:58:58;6.83;;;5.43;;
32407;SDS011;18869;55.970;37.502;2022-07-09T02:01:26;7.30;;;6.57;;
32407;SDS011;18869;55.970;37.502;2022-07-09T02:03:54;6.77;;;6.07;;
32407;SDS011;18869;55.970;37.502;2022-07-09T02:06:21;8.00;;;6.13;;
32407;SDS011;18869;55.970;37.502;2022-07-09T02:08:49;7.03;;;5.67;;
32407;SDS011;18869;55.970;37.502;2022-07-09T02:11:18;6.73;;;5.83;;
32407;SDS011;18869;55.970;37.502;2022-07-09T02:13:47;12.73;;;6.00;;
32407;SDS011;18869;55.970;37.502;2022-07-09T02:16:15;7.77;;;5.53;;
32407;SDS011;18869;55.970;37.502;2022-07-09T02:18:43;9.43;;;5.40;;
32407;SDS011;18869;55.970;37.502;2022-07-09T02:21:11;8.00;;;5.80;;
32407;SDS011;18869;55.970;37.502;2022-07-09T02:23:39;9.23;;;6.60;;
32407;SDS011;18869;55.970;37.502;2022-07-09T02:26:07;6.10;;;5.50;;
32407;SDS011;18869;55.970;37.502;2022-07-09T02:28:35;6.10;;;5.37;;
32407;SDS011;18869;55.970;37.502;2022-07-09T02:31:04;10.57;;;5.93;;
32407;SDS011;18869;55.970;37.502;2022-07-09T02:33:32;10.67;;;6.13;;
32407;SDS011;18869;55.970;37.502;2022-07-09T02:36:00;7.57;;;5.43;;
32407;SDS011;18869;55.970;37.502;2022-07-09T02:38:28;7.00;;;5.30;;
32407;SDS011;18869;55.970;37.502;2022-07-09T02:40:56;7.93;;;4.80;;
32407;SDS011;18869;55.970;37.502;2022-07-09T02:43:26;6.10;;;5.00;;
32407;SDS011;18869;55.970;37.502;2022-07-09T02:45:54;6.67;;;5.23;;
32407;SDS011;18869;55.970;37.502;2022-07-09T02:48:24;5.73;;;5.20;;
32407;SDS011;18869;55.970;37.502;2022-07-09T02:50:52;8.20;;;6.10;;
32407;SDS011;18869;55.970;37.502;2022-07-09T02:53:20;6.97;;;6.23;;
32407;SDS011;18869;55.970;37.502;2022-07-09T02:55:48;6.80;;;6.10;;
32407;SDS011;18869;55.970;37.502;2022-07-09T02:58:19;9.10;;;7.33;;
32407;SDS011;18869;55.970;37.502;2022-07-09T03:00:47;7.30;;;6.60;;
32407;SDS011;18869;55.970;37.502;2022-07-09T03:03:15;8.23;;;6.70;;
32407;SDS011;18869;55.970;37.502;2022-07-09T03:05:44;8.13;;;6.50;;
32407;SDS011;18869;55.970;37.502;2022-07-09T03:08:12;7.67;;;6.27;;
32407;SDS011;18869;55.970;37.502;2022-07-09T03:10:40;7.30;;;6.43;;
32407;SDS011;18869;55.970;37.502;2022-07-09T03:13:08;8.77;;;6.17;;
32407;SDS011;18869;55.970;37.502;2022-07-09T03:15:35;6.83;;;6.23;;
32407;SDS011;18869;55.970;37.502;2022-07-09T03:18:03;8.57;;;6.90;;
32407;SDS011;18869;55.970;37.502;2022-07-09T03:20:33;5.93;;;5.33;;
32407;SDS011;18869;55.970;37.502;2022-07-09T03:23:02;8.60;;;6.53;;
32407;SDS011;18869;55.970;37.502;2022-07-09T03:25:30;8.50;;;6.93;;
32407;SDS011;18869;55.970;37.502;2022-07-09T03:27:59;6.57;;;5.73;;
32407;SDS011;18869;55.970;37.502;2022-07-09T03:30:27;7.80;;;6.57;;
32407;SDS011;18869;55.970;37.502;2022-07-09T03:32:54;7.20;;;6.00;;
32407;SDS011;18869;55.970;37.502;2022-07-09T03:35:22;9.37;;;6.50;;
32407;SDS011;18869;55.970;37.502;2022-07-09T03:37:49;7.20;;;5.93;;
32407;SDS011;18869;55.970;37.502;2022-07-09T03:40:19;7.30;;;6.60;;
32407;SDS011;18869;55.970;37.502;2022-07-09T03:42:46;9.07;;;5.87;;
32407;SDS011;18869;55.970;37.502;2022-07-09T03:45:14;6.40;;;5.80;;
32407;SDS011;18869;55.970;37.502;2022-07-09T03:47:42;6.97;;;6.27;;
32407;SDS011;18869;55.970;37.502;2022-07-09T03:50:10;7.53;;;6.10;;
32407;SDS011;18869;55.970;37.502;2022-07-09T03:52:38;7.43;;;5.83;;
32407;SDS011;18869;55.970;37.502;2022-07-09T03:55:06;7.47;;;6.03;;
32407;SDS011;18869;55.970;37.502;2022-07-09T03:57:35;8.17;;;6.27;;
32407;SDS011;18869;55.970;37.502;2022-07-09T04:00:03;6.53;;;5.93;;
32407;SDS011;18869;55.970;37.502;2022-07-09T04:02:38;6.57;;;5.93;;
32407;SDS011;18869;55.970;37.502;2022-07-09T04:05:07;6.40;;;5.70;;
32407;SDS011;18869;55.970;37.502;2022-07-09T04:07:35;5.90;;;5.40;;
32407;SDS011;18869;55.970;37.502;2022-07-09T04:10:04;7.73;;;5.83;;
32407;SDS011;18869;55.970;37.502;2022-07-09T04:12:32;6.00;;;5.40;;
32407;SDS011;18869;55.970;37.502;2022-07-09T04:15:01;6.03;;;5.10;;
32407;SDS011;18869;55.970;37.502;2022-07-09T04:17:29;6.87;;;6.07;;
32407;SDS011;18869;55.970;37.502;2022-07-09T04:19:58;6.43;;;5.77;;
32407;SDS011;18869;55.970;37.502;2022-07-09T04:22:25;6.97;;;6.03;;
32407;SDS011;18869;55.970;37.502;2022-07-09T04:24:53;7.40;;;5.40;;
32407;SDS011;18869;55.970;37.502;2022-07-09T04:27:21;6.50;;;4.83;;
32407;SDS011;18869;55.970;37.502;2022-07-09T04:29:48;7.90;;;5.43;;
32407;SDS011;18869;55.970;37.502;2022-07-09T04:32:17;5.97;;;4.87;;
32407;SDS011;18869;55.970;37.502;2022-07-09T04:34:45;5.83;;;4.93;;
32407;SDS011;18869;55.970;37.502;2022-07-09T04:37:13;7.90;;;5.23;;
32407;SDS011;18869;55.970;37.502;2022-07-09T04:39:41;10.53;;;4.73;;
32407;SDS011;18869;55.970;37.502;2022-07-09T04:42:09;8.47;;;5.03;;
32407;SDS011;18869;55.970;37.502;2022-07-09T04:44:38;4.73;;;4.10;;
32407;SDS011;18869;55.970;37.502;2022-07-09T04:47:07;8.40;;;4.43;;
32407;SDS011;18869;55.970;37.502;2022-07-09T04:49:37;6.20;;;5.13;;
32407;SDS011;18869;55.970;37.502;2022-07-09T04:52:05;6.20;;;4.43;;
32407;SDS011;18869;55.970;37.502;2022-07-09T04:54:34;4.73;;;4.10;;
32407;SDS011;18869;55.970;37.502;2022-07-09T04:57:03;7.80;;;4.43;;
32407;SDS011;18869;55.970;37.502;2022-07-09T04:59:31;4.77;;;4.13;;
32407;SDS011;18869;55.970;37.502;2022-07-09T05:01:59;4.40;;;4.03;;
32407;SDS011;18869;55.970;37.502;2022-07-09T05:04:28;6.77;;;4.77;;
32407;SDS011;18869;55.970;37.502;2022-07-09T05:06:57;5.77;;;4.23;;
32407;SDS011;18869;55.970;37.502;2022-07-09T05:09:25;6.23;;;5.27;;
32407;SDS011;18869;55.970;37.502;2022-07-09T05:11:52;5.63;;;5.03;;
32407;SDS011;18869;55.970;37.502;2022-07-09T05:14:21;5.93;;;4.80;;
32407;SDS011;18869;55.970;37.502;2022-07-09T05:16:48;5.47;;;4.70;;
32407;SDS011;18869;55.970;37.502;2022-07-09T05:19:17;12.50;;;6.07;;
32407;SDS011;18869;55.970;37.502;2022-07-09T05:21:44;7.87;;;4.57;;
32407;SDS011;18869;55.970;37.502;2022-07-09T05:24:14;5.80;;;4.10;;
32407;SDS011;18869;55.970;37.502;2022-07-09T05:26:41;6.83;;;4.40;;
32407;SDS011;18869;55.970;37.502;2022-07-09T05:29:09;5.00;;;3.30;;
32407;SDS011;18869;55.970;37.502;2022-07-09T05:31:38;5.00;;;3.93;;
32407;SDS011;18869;55.970;37.502;2022-07-09T05:34:07;6.80;;;4.23;;
32407;SDS011;18869;55.970;37.502;2022-07-09T05:36:35;3.50;;;3.13;;
32407;SDS011;18869;55.970;37.502;2022-07-09T05:39:04;4.80;;;3.00;;
32407;SDS011;18869;55.970;37.502;2022-07-09T05:41:34;3.50;;;2.93;;
32407;SDS011;18869;55.970;37.502;2022-07-09T05:44:03;3.87;;;3.03;;
32407;SDS011;18869;55.970;37.502;2022-07-09T05:46:30;4.50;;;2.83;;
32407;SDS011;18869;55.970;37.502;2022-07-09T05:48:59;55.50;;;9.93;;
32407;SDS011;18869;55.970;37.502;2022-07-09T05:51:26;4.70;;;2.63;;
32407;SDS011;18869;55.970;37.502;2022-07-09T05:53:54;3.17;;;2.57;;
32407;SDS011;18869;55.970;37.502;2022-07-09T05:56:22;2.10;;;1.70;;
32407;SDS011;18869;55.970;37.502;2022-07-09T05:58:51;2.43;;;1.90;;
32407;SDS011;18869;55.970;37.502;2022-07-09T06:01:19;2.03;;;1.70;;
32407;SDS011;18869;55.970;37.502;2022-07-09T06:03:48;2.07;;;1.43;;
32407;SDS011;18869;55.970;37.502;2022-07-09T06:06:15;22.80;;;3.40;;
32407;SDS011;18869;55.970;37.502;2022-07-09T06:08:43;3.03;;;1.80;;
32407;SDS011;18869;55.970;37.502;2022-07-09T06:11:11;28.53;;;4.80;;
32407;SDS011;18869;55.970;37.502;2022-07-09T06:13:39;23.50;;;4.53;;
32407;SDS011;18869;55.970;37.502;2022-07-09T06:16:08;3.40;;;1.60;;
32407;SDS011;18869;55.970;37.502;2022-07-09T06:18:37;13.10;;;3.43;;
32407;SDS011;18869;55.970;37.502;2022-07-09T06:21:04;4.60;;;1.92;;
32407;SDS011;18869;55.970;37.502;2022-07-09T06:23:32;3.28;;;1.20;;
32407;SDS011;18869;55.970;37.502;2022-07-09T06:26:00;3.00;;;1.48;;
32407;SDS011;18869;55.970;37.502;2022-07-09T06:28:28;27.33;;;6.40;;
32407;SDS011;18869;55.970;37.502;2022-07-09T06:30:56;191.27;;;31.67;;
32407;SDS011;18869;55.970;37.502;2022-07-09T06:33:26;79.85;;;15.88;;
32407;SDS011;18869;55.970;37.502;2022-07-09T06:35:54;7.37;;;3.25;;
32407;SDS011;18869;55.970;37.502;2022-07-09T06:38:21;6.78;;;2.10;;
32407;SDS011;18869;55.970;37.502;2022-07-09T06:40:50;28.77;;;4.53;;
32407;SDS011;18869;55.970;37.502;2022-07-09T06:43:21;1.58;;;1.17;;
32407;SDS011;18869;55.970;37.502;2022-07-09T06:45:51;10.55;;;2.65;;
32407;SDS011;18869;55.970;37.502;2022-07-09T06:48:19;1.70;;;1.40;;
32407;SDS011;18869;55.970;37.502;2022-07-09T06:50:48;2.22;;;1.37;;
32407;SDS011;18869;55.970;37.502;2022-07-09T06:53:16;1.58;;;1.40;;
32407;SDS011;18869;55.970;37.502;2022-07-09T06:55:44;1.95;;;1.30;;
32407;SDS011;18869;55.970;37.502;2022-07-09T06:58:12;1.37;;;1.17;;
32407;SDS011;18869;55.970;37.502;2022-07-09T07:00:40;4.80;;;1.52;;
32407;SDS011;18869;55.970;37.502;2022-07-09T07:03:08;1.87;;;1.20;;
32407;SDS011;18869;55.970;37.502;2022-07-09T07:05:36;1.67;;;1.23;;
32407;SDS011;18869;55.970;37.502;2022-07-09T07:08:06;2.75;;;1.30;;
32407;SDS011;18869;55.970;37.502;2022-07-09T07:10:33;1.15;;;1.02;;
32407;SDS011;18869;55.970;37.502;2022-07-09T07:13:04;4.72;;;1.50;;
32407;SDS011;18869;55.970;37.502;2022-07-09T07:15:36;1.87;;;1.20;;
32407;SDS011;18869;55.970;37.502;2022-07-09T07:18:04;2.35;;;1.17;;
32407;SDS011;18869;55.970;37.502;2022-07-09T07:20:32;3.08;;;1.00;;
32407;SDS011;18869;55.970;37.502;2022-07-09T07:23:00;2.15;;;1.25;;
32407;SDS011;18869;55.970;37.502;2022-07-09T07:25:30;13.20;;;3.03;;
32407;SDS011;18869;55.970;37.502;2022-07-09T07:27:58;4.47;;;1.65;;
32407;SDS011;18869;55.970;37.502;2022-07-09T07:30:27;2.42;;;1.45;;
32407;SDS011;18869;55.970;37.502;2022-07-09T07:32:58;14.43;;;2.45;;
32407;SDS011;18869;55.970;37.502;2022-07-09T07:35:27;1.87;;;1.40;;
32407;SDS011;18869;55.970;37.502;2022-07-09T07:37:56;1.40;;;1.30;;
32407;SDS011;18869;55.970;37.502;2022-07-09T07:40:25;3.30;;;1.35;;
32407;SDS011;18869;55.970;37.502;2022-07-09T07:42:55;1.48;;;1.10;;
32407;SDS011;18869;55.970;37.502;2022-07-09T07:45:24;2.55;;;1.35;;
32407;SDS011;18869;55.970;37.502;2022-07-09T07:47:53;1.33;;;1.02;;
32407;SDS011;18869;55.970;37.502;2022-07-09T07:50:23;2.03;;;1.20;;
32407;SDS011;18869;55.970;37.502;2022-07-09T07:52:51;2.87;;;1.37;;
32407;SDS011;18869;55.970;37.502;2022-07-09T07:55:19;6.05;;;1.85;;
32407;SDS011;18869;55.970;37.502;2022-07-09T07:57:48;9.30;;;2.40;;
32407;SDS011;18869;55.970;37.502;2022-07-09T08:00:17;1.67;;;1.30;;
32407;SDS011;18869;55.970;37.502;2022-07-09T08:02:45;1.90;;;1.40;;
32407;SDS011;18869;55.970;37.502;2022-07-09T08:05:13;3.05;;;1.45;;
32407;SDS011;18869;55.970;37.502;2022-07-09T08:07:41;2.78;;;1.50;;
32407;SDS011;18869;55.970;37.502;2022-07-09T08:10:09;1.85;;;1.42;;
32407;SDS011;18869;55.970;37.502;2022-07-09T08:12:37;2.20;;;2.00;;
32407;SDS011;18869;55.970;37.502;2022-07-09T08:15:06;2.08;;;1.52;;
32407;SDS011;18869;55.970;37.502;2022-07-09T08:17:38;2.40;;;1.83;;
32407;SDS011;18869;55.970;37.502;2022-07-09T08:20:08;1.97;;;1.50;;
32407;SDS011;18869;55.970;37.502;2022-07-09T08:22:38;1.83;;;1.73;;
32407;SDS011;18869;55.970;37.502;2022-07-09T08:25:06;3.90;;;1.60;;
32407;SDS011;18869;55.970;37.502;2022-07-09T08:27:34;1.73;;;1.60;;
32407;SDS011;18869;55.970;37.502;2022-07-09T08:30:05;1.50;;;1.40;;
32407;SDS011;18869;55.970;37.502;2022-07-09T08:32:35;26.33;;;4.90;;
32407;SDS011;18869;55.970;37.502;2022-07-09T08:35:06;8.77;;;2.87;;
32407;SDS011;18869;55.970;37.502;2022-07-09T08:37:35;2.23;;;1.90;;
32407;SDS011;18869;55.970;37.502;2022-07-09T08:40:05;3.73;;;2.13;;
32407;SDS011;18869;55.970;37.502;2022-07-09T08:42:34;3.53;;;1.50;;
32407;SDS011;18869;55.970;37.502;2022-07-09T08:45:01;1.93;;;1.43;;
32407;SDS011;18869;55.970;37.502;2022-07-09T08:47:30;2.73;;;1.53;;
32407;SDS011;18869;55.970;37.502;2022-07-09T08:49:58;3.07;;;1.90;;
32407;SDS011;18869;55.970;37.502;2022-07-09T08:52:31;6.00;;;4.47;;
32407;SDS011;18869;55.970;37.502;2022-07-09T08:55:00;6.53;;;4.53;;
32407;SDS011;18869;55.970;37.502;2022-07-09T08:57:29;4.00;;;3.33;;
32407;SDS011;18869;55.970;37.502;2022-07-09T08:59:57;7.97;;;4.33;;
32407;SDS011;18869;55.970;37.502;2022-07-09T09:02:25;6.13;;;4.20;;
32407;SDS011;18869;55.970;37.502;2022-07-09T09:04:54;6.33;;;4.33;;
32407;SDS011;18869;55.970;37.502;2022-07-09T09:07:22;4.93;;;4.27;;
32407;SDS011;18869;55.970;37.502;2022-07-09T09:09:53;4.00;;;3.53;;
32407;SDS011;18869;55.970;37.502;2022-07-09T09:12:26;4.47;;;3.23;;
32407;SDS011;18869;55.970;37.502;2022-07-09T09:14:56;5.80;;;3.23;;
32407;SDS011;18869;55.970;37.502;2022-07-09T09:17:24;25.00;;;11.90;;
32407;SDS011;18869;55.970;37.502;2022-07-09T09:19:51;18.63;;;8.53;;
32407;SDS011;18869;55.970;37.502;2022-07-09T09:22:20;19.37;;;8.33;;
32407;SDS011;18869;55.970;37.502;2022-07-09T09:24:49;16.80;;;4.40;;
32407;SDS011;18869;55.970;37.502;2022-07-09T09:27:28;4.07;;;2.70;;
32407;SDS011;18869;55.970;37.502;2022-07-09T09:29:58;3.67;;;2.67;;
32407;SDS011;18869;55.970;37.502;2022-07-09T09:32:28;3.20;;;2.90;;
32407;SDS011;18869;55.970;37.502;2022-07-09T09:35:01;4.10;;;3.17;;
32407;SDS011;18869;55.970;37.502;2022-07-09T09:37:32;6.67;;;5.30;;
32407;SDS011;18869;55.970;37.502;2022-07-09T09:40:07;5.53;;;3.87;;
32407;SDS011;18869;55.970;37.502;2022-07-09T09:42:39;5.30;;;3.63;;
32407;SDS011;18869;55.970;37.502;2022-07-09T09:45:09;6.23;;;4.10;;
32407;SDS011;18869;55.970;37.502;2022-07-09T09:47:41;4.87;;;3.67;;
32407;SDS011;18869;55.970;37.502;2022-07-09T09:50:11;4.33;;;3.73;;
32407;SDS011;18869;55.970;37.502;2022-07-09T09:52:45;6.33;;;4.20;;
32407;SDS011;18869;55.970;37.502;2022-07-09T09:55:14;4.27;;;3.60;;
32407;SDS011;18869;55.970;37.502;2022-07-09T09:57:44;5.57;;;4.13;;
32407;SDS011;18869;55.970;37.502;2022-07-09T10:00:13;5.53;;;3.90;;
32407;SDS011;18869;55.970;37.502;2022-07-09T10:02:43;5.20;;;4.43;;
32407;SDS011;18869;55.970;37.502;2022-07-09T10:05:13;7.00;;;4.93;;
32407;SDS011;18869;55.970;37.502;2022-07-09T10:07:41;7.17;;;5.87;;
32407;SDS011;18869;55.970;37.502;2022-07-09T10:10:16;8.07;;;6.60;;
32407;SDS011;18869;55.970;37.502;2022-07-09T10:12:46;7.73;;;5.53;;
32407;SDS011;18869;55.970;37.502;2022-07-09T10:15:21;6.03;;;5.30;;
32407;SDS011;18869;55.970;37.502;2022-07-09T10:17:49;5.97;;;4.43;;
32407;SDS011;18869;55.970;37.502;2022-07-09T10:20:17;6.53;;;4.13;;
32407;SDS011;18869;55.970;37.502;2022-07-09T10:22:47;4.00;;;3.57;;
32407;SDS011;18869;55.970;37.502;2022-07-09T10:25:22;4.37;;;3.67;;
32407;SDS011;18869;55.970;37.502;2022-07-09T10:27:55;6.13;;;3.80;;
32407;SDS011;18869;55.970;37.502;2022-07-09T10:30:24;6.70;;;4.13;;
32407;SDS011;18869;55.970;37.502;2022-07-09T10:33:02;6.17;;;4.43;;
32407;SDS011;18869;55.970;37.502;2022-07-09T10:35:38;7.00;;;4.53;;
32407;SDS011;18869;55.970;37.502;2022-07-09T10:38:07;8.70;;;4.37;;
32407;SDS011;18869;55.970;37.502;2022-07-09T10:40:39;6.77;;;4.17;;
32407;SDS011;18869;55.970;37.502;2022-07-09T10:43:09;6.60;;;4.30;;
32407;SDS011;18869;55.970;37.502;2022-07-09T10:45:39;8.17;;;4.20;;
32407;SDS011;18869;55.970;37.502;2022-07-09T10:48:07;7.40;;;4.50;;
32407;SDS011;18869;55.970;37.502;2022-07-09T10:50:38;5.00;;;4.50;;
32407;SDS011;18869;55.970;37.502;2022-07-09T10:53:07;4.93;;;3.93;;
32407;SDS011;18869;55.970;37.502;2022-07-09T10:55:35;4.90;;;3.67;;
32407;SDS011;18869;55.970;37.502;2022-07-09T10:58:02;7.87;;;4.07;;
32407;SDS011;18869;55.970;37.502;2022-07-09T11:00:35;7.77;;;3.97;;
32407;SDS011;18869;55.970;37.502;2022-07-09T11:03:03;6.37;;;4.23;;
32407;SDS011;18869;55.970;37.502;2022-07-09T11:05:34;5.53;;;3.90;;
32407;SDS011;18869;55.970;37.502;2022-07-09T11:08:10;7.30;;;4.00;;
32407;SDS011;18869;55.970;37.502;2022-07-09T11:10:38;7.17;;;3.93;;
32407;SDS011;18869;55.970;37.502;2022-07-09T11:13:07;6.17;;;3.77;;
32407;SDS011;18869;55.970;37.502;2022-07-09T11:15:37;3.93;;;3.30;;
32407;SDS011;18869;55.970;37.502;2022-07-09T11:18:07;5.07;;;3.10;;
32407;SDS011;18869;55.970;37.502;2022-07-09T11:20:36;5.47;;;3.30;;
32407;SDS011;18869;55.970;37.502;2022-07-09T11:23:08;6.23;;;2.80;;
32407;SDS011;18869;55.970;37.502;2022-07-09T11:25:36;3.73;;;2.53;;
32407;SDS011;18869;55.970;37.502;2022-07-09T11:28:04;3.10;;;2.70;;
32407;SDS011;18869;55.970;37.502;2022-07-09T11:30:33;5.07;;;3.57;;
32407;SDS011;18869;55.970;37.502;2022-07-09T11:33:03;4.80;;;3.60;;
32407;SDS011;18869;55.970;37.502;2022-07-09T11:35:32;3.50;;;3.20;;
32407;SDS011;18869;55.970;37.502;2022-07-09T11:38:03;5.10;;;3.27;;
32407;SDS011;18869;55.970;37.502;2022-07-09T11:40:32;3.40;;;2.83;;
32407;SDS011;18869;55.970;37.502;2022-07-09T11:43:00;2.70;;;2.43;;
32407;SDS011;18869;55.970;37.502;2022-07-09T11:45:29;2.57;;;2.23;;
32407;SDS011;18869;55.970;37.502;2022-07-09T11:48:14;2.70;;;2.50;;
32407;SDS011;18869;55.970;37.502;2022-07-09T11:50:44;3.83;;;2.47;;
32407;SDS011;18869;55.970;37.502;2022-07-09T11:53:19;2.20;;;2.00;;
32407;SDS011;18869;55.970;37.502;2022-07-09T11:55:57;5.33;;;2.97;;
32407;SDS011;18869;55.970;37.502;2022-07-09T11:58:26;5.00;;;2.50;;
32407;SDS011;18869;55.970;37.502;2022-07-09T12:00:54;3.03;;;2.73;;
32407;SDS011;18869;55.970;37.502;2022-07-09T12:03:27;3.03;;;2.27;;
32407;SDS011;18869;55.970;37.502;2022-07-09T12:05:56;2.80;;;2.17;;
32407;SDS011;18869;55.970;37.502;2022-07-09T12:08:26;2.93;;;1.90;;
32407;SDS011;18869;55.970;37.502;2022-07-09T12:10:56;2.40;;;2.00;;
32407;SDS011;18869;55.970;37.502;2022-07-09T12:13:24;3.30;;;2.50;;
32407;SDS011;18869;55.970;37.502;2022-07-09T12:15:52;2.20;;;2.00;;
32407;SDS011;18869;55.970;37.502;2022-07-09T12:18:21;8.33;;;2.83;;
32407;SDS011;18869;55.970;37.502;2022-07-09T12:20:50;3.23;;;2.87;;
32407;SDS011;18869;55.970;37.502;2022-07-09T12:23:18;3.50;;;3.20;;
32407;SDS011;18869;55.970;37.502;2022-07-09T12:25:48;3.20;;;2.90;;
32407;SDS011;18869;55.970;37.502;2022-07-09T12:28:16;3.33;;;2.73;;
32407;SDS011;18869;55.970;37.502;2022-07-09T12:30:44;3.47;;;3.17;;
32407;SDS011;18869;55.970;37.502;2022-07-09T12:33:14;3.67;;;3.00;;
32407;SDS011;18869;55.970;37.502;2022-07-09T12:35:44;3.60;;;2.70;;
32407;SDS011;18869;55.970;37.502;2022-07-09T12:38:14;4.50;;;2.90;;
32407;SDS011;18869;55.970;37.502;2022-07-09T12:40:43;3.70;;;2.80;;
32407;SDS011;18869;55.970;37.502;2022-07-09T12:43:10;5.73;;;3.43;;
32407;SDS011;18869;55.970;37.502;2022-07-09T12:45:38;4.23;;;3.30;;
32407;SDS011;18869;55.970;37.502;2022-07-09T12:48:07;3.50;;;3.13;;
32407;SDS011;18869;55.970;37.502;2022-07-09T12:50:35;4.70;;;3.43;;
32407;SDS011;18869;55.970;37.502;2022-07-09T12:53:02;4.20;;;3.07;;
32407;SDS011;18869;55.970;37.502;2022-07-09T12:55:32;4.07;;;3.40;;
32407;SDS011;18869;55.970;37.502;2022-07-09T12:58:00;3.80;;;3.50;;
32407;SDS011;18869;55.970;37.502;2022-07-09T13:00:28;4.50;;;3.17;;
32407;SDS011;18869;55.970;37.502;2022-07-09T13:02:56;3.87;;;3.43;;
32407;SDS011;18869;55.970;37.502;2022-07-09T13:05:23;5.03;;;4.03;;
32407;SDS011;18869;55.970;37.502;2022-07-09T13:07:51;3.90;;;3.47;;
32407;SDS011;18869;55.970;37.502;2022-07-09T13:10:19;4.50;;;3.73;;
32407;SDS011;18869;55.970;37.502;2022-07-09T13:12:50;6.63;;;4.20;;
32407;SDS011;18869;55.970;37.502;2022-07-09T13:15:18;4.60;;;4.20;;
32407;SDS011;18869;55.970;37.502;2022-07-09T13:17:47;4.53;;;3.80;;
32407;SDS011;18869;55.970;37.502;2022-07-09T13:20:15;5.00;;;3.90;;
32407;SDS011;18869;55.970;37.502;2022-07-09T13:22:44;4.83;;;4.37;;
32407;SDS011;18869;55.970;37.502;2022-07-09T13:25:11;5.17;;;4.00;;
32407;SDS011;18869;55.970;37.502;2022-07-09T13:27:39;4.47;;;4.07;;
32407;SDS011;18869;55.970;37.502;2022-07-09T13:30:09;4.97;;;4.03;;
32407;SDS011;18869;55.970;37.502;2022-07-09T13:32:38;4.20;;;3.80;;
32407;SDS011;18869;55.970;37.502;2022-07-09T13:35:07;5.00;;;4.43;;
32407;SDS011;18869;55.970;37.502;2022-07-09T13:37:35;4.23;;;3.83;;
32407;SDS011;18869;55.970;37.502;2022-07-09T13:40:06;5.17;;;3.63;;
32407;SDS011;18869;55.970;37.502;2022-07-09T13:42:35;8.20;;;6.97;;
32407;SDS011;18869;55.970;37.502;2022-07-09T13:45:06;6.80;;;5.87;;
32407;SDS011;18869;55.970;37.502;2022-07-09T13:47:36;4.83;;;3.60;;
32407;SDS011;18869;55.970;37.502;2022-07-09T13:50:04;3.90;;;3.53;;
32407;SDS011;18869;55.970;37.502;2022-07-09T13:52:32;4.07;;;3.77;;
32407;SDS011;18869;55.970;37.502;2022-07-09T13:55:01;3.30;;;3.00;;
32407;SDS011;18869;55.970;37.502;2022-07-09T13:57:29;3.50;;;3.20;;
32407;SDS011;18869;55.970;37.502;2022-07-09T13:59:56;4.23;;;3.83;;
32407;SDS011;18869;55.970;37.502;2022-07-09T14:02:25;5.43;;;4.93;;
32407;SDS011;18869;55.970;37.502;2022-07-09T14:04:55;6.00;;;4.67;;
32407;SDS011;18869;55.970;37.502;2022-07-09T14:07:22;4.90;;;4.20;;
32407;SDS011;18869;55.970;37.502;2022-07-09T14:09:50;5.47;;;3.83;;
32407;SDS011;18869;55.970;37.502;2022-07-09T14:12:18;12.47;;;8.53;;
32407;SDS011;18869;55.970;37.502;2022-07-09T14:14:49;6.80;;;4.80;;
32407;SDS011;18869;55.970;37.502;2022-07-09T14:17:17;6.67;;;5.50;;
32407;SDS011;18869;55.970;37.502;2022-07-09T14:19:45;7.80;;;7.10;;
32407;SDS011;18869;55.970;37.502;2022-07-09T14:22:14;7.73;;;4.80;;
32407;SDS011;18869;55.970;37.502;2022-07-09T14:24:42;17.50;;;9.83;;
32407;SDS011;18869;55.970;37.502;2022-07-09T14:27:10;8.03;;;6.10;;
32407;SDS011;18869;55.970;37.502;2022-07-09T14:29:38;7.53;;;4.90;;
32407;SDS011;18869;55.970;37.502;2022-07-09T14:32:05;7.33;;;5.20;;
32407;SDS011;18869;55.970;37.502;2022-07-09T14:34:35;8.33;;;4.97;;
32407;SDS011;18869;55.970;37.502;2022-07-09T14:37:03;5.57;;;4.60;;
32407;SDS011;18869;55.970;37.502;2022-07-09T14:39:32;4.87;;;4.23;;
32407;SDS011;18869;55.970;37.502;2022-07-09T14:42:00;5.03;;;4.30;;